sensor_id;sensor_type;location;lat;lon;timestamp;pressure;altitude;pressure_sealevel;temperature;humidity
57038;BME280;59942;49.304;8.256;2022-10-16T00:01:30;100151.56;;;15.67;97.65
57038;BME280;59942;49.304;8.256;2022-10-16T00:04:01;100152.69;;;15.62;97.73
57038;BME280;59942;49.304;8.256;2022-10-16T00:06:29;100123.13;;;15.49;97.27
57038;BME280;59942;49.304;8.256;2022-10-16T00:08:56;100133.16;;;15.55;97.93
57038;BME280;59942;49.304;8.256;2022-10-16T00:11:29;100122.28;;;15.49;95.99
57038;BME280;59942;49.304;8.256;2022-10-16T00:14:01;100128.47;;;15.60;97.95
57038;BME280;59942;49.304;8.256;2022-10-16T00:16:37;100119.97;;;15.57;98.53
57038;BME280;59942;49.304;8.256;2022-10-16T00:19:28;100114.44;;;15.49;98.50
57038;BME280;59942;49.304;8.256;2022-10-16T00:21:58;100114.75;;;15.57;97.67
57038;BME280;59942;49.304;8.256;2022-10-16T00:24:29;100139.75;;;15.61;98.78
57038;BME280;59942;49.304;8.256;2022-10-16T00:27:02;100142.88;;;15.53;98.67
57038;BME280;59942;49.304;8.256;2022-10-16T00:29:30;100149.88;;;15.53;98.33
57038;BME280;59942;49.304;8.256;2022-10-16T00:32:00;100159.28;;;15.55;97.53
57038;BME280;59942;49.304;8.256;2022-10-16T00:34:30;100157.63;;;15.54;98.70
57038;BME280;59942;49.304;8.256;2022-10-16T00:36:57;100165.13;;;15.46;98.93
57038;BME280;59942;49.304;8.256;2022-10-16T00:39:27;100160.00;;;15.44;98.88
57038;BME280;59942;49.304;8.256;2022-10-16T00:41:53;100150.91;;;15.37;98.34
57038;BME280;59942;49.304;8.256;2022-10-16T00:44:54;100152.75;;;15.35;98.93
57038;BME280;59942;49.304;8.256;2022-10-16T00:47:31;100146.50;;;15.38;99.46
57038;BME280;59942;49.304;8.256;2022-10-16T00:50:18;100145.03;;;15.34;100.00
57038;BME280;59942;49.304;8.256;2022-10-16T00:52:53;100151.63;;;15.39;98.86
57038;BME280;59942;49.304;8.256;2022-10-16T00:55:29;100163.97;;;15.37;98.80
57038;BME280;59942;49.304;8.256;2022-10-16T00:58:00;100161.66;;;15.33;98.49
57038;BME280;59942;49.304;8.256;2022-10-16T01:00:38;100147.19;;;15.14;97.43
57038;BME280;59942;49.304;8.256;2022-10-16T01:03:33;100139.97;;;15.18;99.66
57038;BME280;59942;49.304;8.256;2022-10-16T01:06:18;100170.31;;;15.33;99.38
57038;BME280;59942;49.304;8.256;2022-10-16T01:09:14;100172.84;;;15.35;98.13
57038;BME280;59942;49.304;8.256;2022-10-16T01:12:04;100173.56;;;15.37;100.00
57038;BME280;59942;49.304;8.256;2022-10-16T01:14:54;100174.72;;;15.33;100.00
57038;BME280;59942;49.304;8.256;2022-10-16T01:32:36;100135.81;;;15.28;98.74
57038;BME280;59942;49.304;8.256;2022-10-16T01:35:38;100167.00;;;15.31;98.76
57038;BME280;59942;49.304;8.256;2022-10-16T01:41:08;100183.03;;;15.25;98.79
57038;BME280;59942;49.304;8.256;2022-10-16T01:43:43;100182.16;;;15.39;99.58
57038;BME280;59942;49.304;8.256;2022-10-16T01:46:23;100180.56;;;15.36;97.55
57038;BME280;59942;49.304;8.256;2022-10-16T01:48:52;100190.50;;;15.31;98.92
57038;BME280;59942;49.304;8.256;2022-10-16T01:51:27;100139.56;;;15.11;98.93
57038;BME280;59942;49.304;8.256;2022-10-16T01:54:02;100170.78;;;15.40;97.53
57038;BME280;59942;49.304;8.256;2022-10-16T01:56:34;100182.88;;;15.41;95.66
57038;BME280;59942;49.304;8.256;2022-10-16T01:59:06;100162.69;;;15.30;94.65
57038;BME280;59942;49.304;8.256;2022-10-16T02:01:50;100193.88;;;15.46;95.79
57038;BME280;59942;49.304;8.256;2022-10-16T02:04:44;100182.84;;;15.28;93.42
57038;BME280;59942;49.304;8.256;2022-10-16T02:07:15;100190.06;;;15.24;93.16
57038;BME280;59942;49.304;8.256;2022-10-16T02:09:43;100183.63;;;15.43;94.59
57038;BME280;59942;49.304;8.256;2022-10-16T02:12:16;100177.75;;;15.39;93.12
57038;BME280;59942;49.304;8.256;2022-10-16T02:14:46;100151.69;;;15.25;94.69
57038;BME280;59942;49.304;8.256;2022-10-16T02:17:20;100186.53;;;15.38;92.84
57038;BME280;59942;49.304;8.256;2022-10-16T02:19:53;100154.16;;;15.14;91.42
57038;BME280;59942;49.304;8.256;2022-10-16T02:27:44;100182.66;;;15.44;93.18
57038;BME280;59942;49.304;8.256;2022-10-16T02:30:21;100181.00;;;15.43;95.08
57038;BME280;59942;49.304;8.256;2022-10-16T02:32:52;100188.41;;;15.36;93.30
57038;BME280;59942;49.304;8.256;2022-10-16T02:35:24;100180.53;;;15.23;93.01
57038;BME280;59942;49.304;8.256;2022-10-16T02:37:56;100183.38;;;15.33;92.32
57038;BME280;59942;49.304;8.256;2022-10-16T02:40:34;100145.91;;;15.07;92.69
57038;BME280;59942;49.304;8.256;2022-10-16T02:43:24;100175.41;;;15.22;91.91
57038;BME280;59942;49.304;8.256;2022-10-16T02:46:10;100180.84;;;15.19;92.11
57038;BME280;59942;49.304;8.256;2022-10-16T02:48:49;100189.75;;;15.29;95.80
57038;BME280;59942;49.304;8.256;2022-10-16T02:51:22;100187.44;;;15.24;95.40
57038;BME280;59942;49.304;8.256;2022-10-16T02:53:49;100186.22;;;15.03;94.27
57038;BME280;59942;49.304;8.256;2022-10-16T02:56:24;100200.81;;;15.20;97.54
57038;BME280;59942;49.304;8.256;2022-10-16T02:58:58;100202.19;;;15.25;94.87
57038;BME280;59942;49.304;8.256;2022-10-16T03:01:33;100201.84;;;15.17;95.57
57038;BME280;59942;49.304;8.256;2022-10-16T03:04:12;100191.09;;;14.94;95.14
57038;BME280;59942;49.304;8.256;2022-10-16T03:06:42;100207.25;;;15.14;99.78
57038;BME280;59942;49.304;8.256;2022-10-16T03:09:30;100207.78;;;15.19;99.19
57038;BME280;59942;49.304;8.256;2022-10-16T03:12:07;100193.34;;;15.14;97.25
57038;BME280;59942;49.304;8.256;2022-10-16T03:14:34;100196.81;;;15.14;99.40
57038;BME280;59942;49.304;8.256;2022-10-16T03:17:07;100194.50;;;15.09;95.86
57038;BME280;59942;49.304;8.256;2022-10-16T03:20:01;100177.25;;;15.07;96.30
57038;BME280;59942;49.304;8.256;2022-10-16T03:22:33;100175.47;;;15.07;94.26
57038;BME280;59942;49.304;8.256;2022-10-16T03:25:24;100190.56;;;15.17;98.87
57038;BME280;59942;49.304;8.256;2022-10-16T03:27:52;100167.78;;;14.91;98.46
57038;BME280;59942;49.304;8.256;2022-10-16T03:30:27;100189.38;;;15.08;99.80
57038;BME280;59942;49.304;8.256;2022-10-16T03:32:54;100190.41;;;15.05;98.18
57038;BME280;59942;49.304;8.256;2022-10-16T03:35:42;100190.31;;;15.07;100.00
57038;BME280;59942;49.304;8.256;2022-10-16T03:38:16;100192.81;;;15.08;100.00
57038;BME280;59942;49.304;8.256;2022-10-16T03:40:51;100191.13;;;15.07;99.56
57038;BME280;59942;49.304;8.256;2022-10-16T03:43:33;100197.84;;;15.11;100.00
57038;BME280;59942;49.304;8.256;2022-10-16T03:46:01;100188.78;;;15.17;98.88
57038;BME280;59942;49.304;8.256;2022-10-16T03:48:36;100201.19;;;15.14;97.57
57038;BME280;59942;49.304;8.256;2022-10-16T03:51:06;100208.09;;;15.15;97.70
57038;BME280;59942;49.304;8.256;2022-10-16T03:53:36;100179.00;;;14.93;97.40
57038;BME280;59942;49.304;8.256;2022-10-16T03:56:09;100203.16;;;15.10;100.00
57038;BME280;59942;49.304;8.256;2022-10-16T03:58:38;100180.63;;;14.94;100.00
57038;BME280;59942;49.304;8.256;2022-10-16T04:01:05;100211.28;;;15.05;97.37
57038;BME280;59942;49.304;8.256;2022-10-16T04:03:36;100209.88;;;15.14;98.29
57038;BME280;59942;49.304;8.256;2022-10-16T04:06:10;100210.28;;;15.08;100.00
57038;BME280;59942;49.304;8.256;2022-10-16T04:08:48;100199.66;;;14.97;95.55
57038;BME280;59942;49.304;8.256;2022-10-16T04:11:22;100209.66;;;14.90;94.70
57038;BME280;59942;49.304;8.256;2022-10-16T04:13:54;100186.25;;;14.88;99.16
57038;BME280;59942;49.304;8.256;2022-10-16T04:16:31;100221.25;;;15.13;98.90
57038;BME280;59942;49.304;8.256;2022-10-16T04:19:04;100238.78;;;15.11;99.59
57038;BME280;59942;49.304;8.256;2022-10-16T04:21:34;100227.25;;;15.01;99.39
57038;BME280;59942;49.304;8.256;2022-10-16T04:24:11;100211.69;;;14.85;100.00
57038;BME280;59942;49.304;8.256;2022-10-16T04:26:45;100238.56;;;14.87;97.43
57038;BME280;59942;49.304;8.256;2022-10-16T04:29:13;100203.25;;;14.81;99.66
57038;BME280;59942;49.304;8.256;2022-10-16T04:31:55;100219.28;;;14.89;95.16
57038;BME280;59942;49.304;8.256;2022-10-16T04:34:36;100212.75;;;14.82;93.83
57038;BME280;59942;49.304;8.256;2022-10-16T04:37:05;100196.72;;;14.74;92.81
57038;BME280;59942;49.304;8.256;2022-10-16T04:39:35;100214.25;;;14.86;92.02
57038;BME280;59942;49.304;8.256;2022-10-16T04:42:02;100229.22;;;14.97;94.86
57038;BME280;59942;49.304;8.256;2022-10-16T04:44:36;100231.81;;;14.97;92.74
57038;BME280;59942;49.304;8.256;2022-10-16T04:47:03;100239.91;;;15.07;94.39
57038;BME280;59942;49.304;8.256;2022-10-16T04:49:36;100226.91;;;14.92;93.04
57038;BME280;59942;49.304;8.256;2022-10-16T04:52:05;100186.69;;;14.68;92.28
57038;BME280;59942;49.304;8.256;2022-10-16T04:54:41;100222.72;;;14.90;91.63
57038;BME280;59942;49.304;8.256;2022-10-16T04:57:19;100227.34;;;14.99;92.63
57038;BME280;59942;49.304;8.256;2022-10-16T04:59:46;100228.59;;;14.93;94.44
57038;BME280;59942;49.304;8.256;2022-10-16T05:02:27;100222.59;;;14.91;93.82
57038;BME280;59942;49.304;8.256;2022-10-16T05:04:56;100229.25;;;14.83;92.33
57038;BME280;59942;49.304;8.256;2022-10-16T05:07:33;100238.84;;;14.97;96.48
57038;BME280;59942;49.304;8.256;2022-10-16T05:10:03;100227.66;;;14.80;92.83
57038;BME280;59942;49.304;8.256;2022-10-16T05:12:31;100216.41;;;14.80;93.78
57038;BME280;59942;49.304;8.256;2022-10-16T05:15:06;100205.47;;;14.87;92.66
57038;BME280;59942;49.304;8.256;2022-10-16T05:17:34;100175.69;;;14.63;93.03
57038;BME280;59942;49.304;8.256;2022-10-16T05:20:05;100206.47;;;14.85;96.20
57038;BME280;59942;49.304;8.256;2022-10-16T05:22:40;100219.72;;;14.82;97.44
57038;BME280;59942;49.304;8.256;2022-10-16T05:25:13;100228.03;;;14.88;98.72
57038;BME280;59942;49.304;8.256;2022-10-16T05:27:47;100205.78;;;14.68;96.94
57038;BME280;59942;49.304;8.256;2022-10-16T05:30:18;100230.47;;;14.77;95.89
57038;BME280;59942;49.304;8.256;2022-10-16T05:32:49;100237.53;;;14.89;99.10
57038;BME280;59942;49.304;8.256;2022-10-16T05:35:30;100254.84;;;14.90;99.54
57038;BME280;59942;49.304;8.256;2022-10-16T05:37:58;100247.50;;;14.83;100.00
57038;BME280;59942;49.304;8.256;2022-10-16T05:40:32;100257.50;;;14.76;100.00
57038;BME280;59942;49.304;8.256;2022-10-16T05:43:00;100255.63;;;14.78;100.00
57038;BME280;59942;49.304;8.256;2022-10-16T05:45:27;100253.94;;;14.77;98.89
57038;BME280;59942;49.304;8.256;2022-10-16T05:47:55;100231.41;;;14.62;100.00
57038;BME280;59942;49.304;8.256;2022-10-16T05:50:22;100251.94;;;14.68;100.00
57038;BME280;59942;49.304;8.256;2022-10-16T05:52:50;100239.06;;;14.65;100.00
57038;BME280;59942;49.304;8.256;2022-10-16T05:55:18;100244.38;;;14.63;100.00
57038;BME280;59942;49.304;8.256;2022-10-16T05:57:45;100215.66;;;14.49;100.00
57038;BME280;59942;49.304;8.256;2022-10-16T06:00:12;100235.31;;;14.69;100.00
57038;BME280;59942;49.304;8.256;2022-10-16T06:02:39;100219.13;;;14.64;100.00
57038;BME280;59942;49.304;8.256;2022-10-16T06:05:06;100247.81;;;14.78;100.00
57038;BME280;59942;49.304;8.256;2022-10-16T06:07:36;100240.28;;;14.73;100.00
57038;BME280;59942;49.304;8.256;2022-10-16T06:10:04;100248.75;;;14.77;100.00
57038;BME280;59942;49.304;8.256;2022-10-16T06:12:31;100252.38;;;14.74;100.00
57038;BME280;59942;49.304;8.256;2022-10-16T06:15:00;100259.53;;;14.85;100.00
57038;BME280;59942;49.304;8.256;2022-10-16T06:17:34;100248.25;;;14.85;100.00
57038;BME280;59942;49.304;8.256;2022-10-16T06:20:11;100232.34;;;14.75;100.00
57038;BME280;59942;49.304;8.256;2022-10-16T06:22:55;100246.78;;;14.81;100.00
57038;BME280;59942;49.304;8.256;2022-10-16T06:25:25;100264.66;;;14.87;100.00
57038;BME280;59942;49.304;8.256;2022-10-16T06:27:53;100238.69;;;14.71;100.00
57038;BME280;59942;49.304;8.256;2022-10-16T06:30:32;100280.53;;;14.84;100.00
57038;BME280;59942;49.304;8.256;2022-10-16T06:32:59;100279.56;;;14.85;100.00
57038;BME280;59942;49.304;8.256;2022-10-16T06:35:31;100255.47;;;14.67;100.00
57038;BME280;59942;49.304;8.256;2022-10-16T06:38:08;100284.16;;;14.81;100.00
57038;BME280;59942;49.304;8.256;2022-10-16T06:40:44;100284.78;;;14.85;98.46
57038;BME280;59942;49.304;8.256;2022-10-16T06:43:18;100288.53;;;14.95;98.73
57038;BME280;59942;49.304;8.256;2022-10-16T06:46:02;100300.44;;;14.99;99.32
57038;BME280;59942;49.304;8.256;2022-10-16T06:48:36;100302.88;;;15.02;99.57
57038;BME280;59942;49.304;8.256;2022-10-16T06:51:24;100302.69;;;15.05;100.00
57038;BME280;59942;49.304;8.256;2022-10-16T06:53:55;100302.97;;;15.01;100.00
57038;BME280;59942;49.304;8.256;2022-10-16T06:59:33;100316.84;;;15.16;100.00
57038;BME280;59942;49.304;8.256;2022-10-16T07:02:11;100323.94;;;14.99;100.00
57038;BME280;59942;49.304;8.256;2022-10-16T07:04:59;100318.81;;;14.83;96.68
57038;BME280;59942;49.304;8.256;2022-10-16T07:07:30;100325.91;;;14.96;96.59
57038;BME280;59942;49.304;8.256;2022-10-16T07:10:01;100325.78;;;15.11;95.99
57038;BME280;59942;49.304;8.256;2022-10-16T07:12:28;100329.06;;;15.15;94.51
57038;BME280;59942;49.304;8.256;2022-10-16T07:18:09;100338.81;;;15.26;95.14
57038;BME280;59942;49.304;8.256;2022-10-16T07:21:13;100349.19;;;15.27;94.16
57038;BME280;59942;49.304;8.256;2022-10-16T07:23:53;100350.38;;;15.36;94.33
57038;BME280;59942;49.304;8.256;2022-10-16T07:26:28;100357.16;;;15.53;95.47
57038;BME280;59942;49.304;8.256;2022-10-16T07:29:36;100353.88;;;15.50;95.06
57038;BME280;59942;49.304;8.256;2022-10-16T07:32:14;100364.06;;;15.54;95.12
57038;BME280;59942;49.304;8.256;2022-10-16T07:35:00;100367.50;;;15.55;99.08
57038;BME280;59942;49.304;8.256;2022-10-16T07:37:35;100351.84;;;15.40;96.43
57038;BME280;59942;49.304;8.256;2022-10-16T07:40:09;100384.25;;;15.65;97.14
57038;BME280;59942;49.304;8.256;2022-10-16T07:43:12;100383.88;;;15.71;94.57
57038;BME280;59942;49.304;8.256;2022-10-16T07:46:01;100386.47;;;15.71;94.75
57038;BME280;59942;49.304;8.256;2022-10-16T07:48:48;100378.19;;;15.79;94.59
57038;BME280;59942;49.304;8.256;2022-10-16T07:51:20;100380.72;;;15.80;94.91
57038;BME280;59942;49.304;8.256;2022-10-16T07:54:01;100387.66;;;15.94;96.33
57038;BME280;59942;49.304;8.256;2022-10-16T07:56:58;100384.41;;;15.91;95.39
57038;BME280;59942;49.304;8.256;2022-10-16T07:59:55;100383.78;;;16.00;96.19
57038;BME280;59942;49.304;8.256;2022-10-16T08:02:32;100396.66;;;16.03;96.43
57038;BME280;59942;49.304;8.256;2022-10-16T08:08:21;100391.59;;;15.87;97.48
57038;BME280;59942;49.304;8.256;2022-10-16T08:11:06;100373.25;;;15.74;97.60
57038;BME280;59942;49.304;8.256;2022-10-16T08:13:59;100403.69;;;16.03;96.93
57038;BME280;59942;49.304;8.256;2022-10-16T08:16:33;100399.53;;;16.13;96.52
57038;BME280;59942;49.304;8.256;2022-10-16T08:19:09;100415.13;;;16.14;96.31
57038;BME280;59942;49.304;8.256;2022-10-16T08:22:06;100407.41;;;16.26;96.06
57038;BME280;59942;49.304;8.256;2022-10-16T08:25:05;100409.91;;;16.27;96.60
57038;BME280;59942;49.304;8.256;2022-10-16T08:28:03;100413.28;;;16.29;95.46
57038;BME280;59942;49.304;8.256;2022-10-16T08:30:43;100419.06;;;16.47;95.18
57038;BME280;59942;49.304;8.256;2022-10-16T08:33:22;100420.63;;;16.37;95.22
57038;BME280;59942;49.304;8.256;2022-10-16T08:36:13;100429.75;;;16.57;95.34
57038;BME280;59942;49.304;8.256;2022-10-16T08:38:56;100430.72;;;16.69;94.26
57038;BME280;59942;49.304;8.256;2022-10-16T08:48:18;100455.66;;;17.76;88.02
57038;BME280;59942;49.304;8.256;2022-10-16T08:51:12;100462.38;;;17.93;89.02
57038;BME280;59942;49.304;8.256;2022-10-16T08:57:41;100473.94;;;17.65;88.29
57038;BME280;59942;49.304;8.256;2022-10-16T09:12:15;100489.22;;;18.21;86.34
57038;BME280;59942;49.304;8.256;2022-10-16T09:15:39;100503.38;;;18.43;82.80
57038;BME280;59942;49.304;8.256;2022-10-16T09:24:25;100498.09;;;18.91;85.80
57038;BME280;59942;49.304;8.256;2022-10-16T09:26:55;100468.22;;;18.21;82.33
57038;BME280;59942;49.304;8.256;2022-10-16T09:29:26;100497.91;;;18.46;85.58
57038;BME280;59942;49.304;8.256;2022-10-16T09:31:57;100491.03;;;18.91;85.89
57038;BME280;59942;49.304;8.256;2022-10-16T09:37:45;100482.13;;;19.05;88.10
57038;BME280;59942;49.304;8.256;2022-10-16T09:40:41;100499.94;;;19.36;84.46
57038;BME280;59942;49.304;8.256;2022-10-16T09:43:26;100494.81;;;19.46;82.91
57038;BME280;59942;49.304;8.256;2022-10-16T09:46:01;100485.84;;;20.15;80.36
57038;BME280;59942;49.304;8.256;2022-10-16T09:48:57;100501.66;;;20.47;85.89
57038;BME280;59942;49.304;8.256;2022-10-16T09:52:20;100511.19;;;20.48;77.30
57038;BME280;59942;49.304;8.256;2022-10-16T09:55:23;100512.56;;;20.96;86.31
57038;BME280;59942;49.304;8.256;2022-10-16T09:57:58;100505.81;;;21.03;80.00
57038;BME280;59942;49.304;8.256;2022-10-16T10:00:51;100502.22;;;20.51;78.54
57038;BME280;59942;49.304;8.256;2022-10-16T10:03:40;100510.28;;;20.38;76.97
57038;BME280;59942;49.304;8.256;2022-10-16T10:06:33;100506.41;;;20.53;81.54
57038;BME280;59942;49.304;8.256;2022-10-16T10:12:03;100508.78;;;20.89;85.48
57038;BME280;59942;49.304;8.256;2022-10-16T10:14:49;100497.56;;;20.96;76.79
57038;BME280;59942;49.304;8.256;2022-10-16T12:37:21;100434.78;;;21.11;76.63
57038;BME280;59942;49.304;8.256;2022-10-16T12:44:24;100479.22;;;21.47;76.71
57038;BME280;59942;49.304;8.256;2022-10-16T14:06:35;100508.63;;;20.37;80.98
57038;BME280;59942;49.304;8.256;2022-10-16T14:13:48;100499.28;;;20.65;79.25
57038;BME280;59942;49.304;8.256;2022-10-16T14:20:49;100501.22;;;20.63;77.80
57038;BME280;59942;49.304;8.256;2022-10-16T14:35:39;100525.09;;;20.50;78.06
57038;BME280;59942;49.304;8.256;2022-10-16T15:18:51;100531.38;;;20.91;77.30
57038;BME280;59942;49.304;8.256;2022-10-16T15:30:50;100510.84;;;21.16;78.23
57038;BME280;59942;49.304;8.256;2022-10-16T15:37:02;100512.78;;;21.14;75.38
57038;BME280;59942;49.304;8.256;2022-10-16T15:39:49;100515.22;;;21.27;76.85
57038;BME280;59942;49.304;8.256;2022-10-16T15:42:18;100516.38;;;21.34;76.08
57038;BME280;59942;49.304;8.256;2022-10-16T15:44:55;100507.38;;;21.15;71.69
57038;BME280;59942;49.304;8.256;2022-10-16T15:47:21;100513.53;;;21.26;74.25
57038;BME280;59942;49.304;8.256;2022-10-16T15:49:51;100509.59;;;21.10;75.31
57038;BME280;59942;49.304;8.256;2022-10-16T15:52:18;100516.00;;;21.17;75.70
57038;BME280;59942;49.304;8.256;2022-10-16T15:54:46;100528.03;;;20.68;75.02
57038;BME280;59942;49.304;8.256;2022-10-16T15:57:20;100527.78;;;20.92;78.27
57038;BME280;59942;49.304;8.256;2022-10-16T15:59:48;100525.88;;;20.94;77.17
57038;BME280;59942;49.304;8.256;2022-10-16T16:02:17;100525.16;;;20.92;76.88
57038;BME280;59942;49.304;8.256;2022-10-16T16:04:44;100528.94;;;20.99;76.63
57038;BME280;59942;49.304;8.256;2022-10-16T16:07:11;100527.22;;;20.89;76.85
57038;BME280;59942;49.304;8.256;2022-10-16T16:09:38;100531.34;;;20.81;75.67
57038;BME280;59942;49.304;8.256;2022-10-16T16:12:05;100526.44;;;20.77;76.63
57038;BME280;59942;49.304;8.256;2022-10-16T16:14:33;100535.59;;;20.61;77.77
57038;BME280;59942;49.304;8.256;2022-10-16T16:16:59;100536.72;;;20.47;76.79
57038;BME280;59942;49.304;8.256;2022-10-16T16:19:29;100506.75;;;20.27;77.33
57038;BME280;59942;49.304;8.256;2022-10-16T16:21:58;100528.97;;;20.35;77.31
57038;BME280;59942;49.304;8.256;2022-10-16T16:24:25;100540.38;;;20.35;76.93
57038;BME280;59942;49.304;8.256;2022-10-16T16:26:53;100538.94;;;20.31;77.14
57038;BME280;59942;49.304;8.256;2022-10-16T16:29:24;100524.84;;;20.21;78.65
57038;BME280;59942;49.304;8.256;2022-10-16T16:31:51;100536.91;;;20.23;78.32
57038;BME280;59942;49.304;8.256;2022-10-16T16:34:25;100543.84;;;20.24;78.26
57038;BME280;59942;49.304;8.256;2022-10-16T16:36:52;100520.09;;;20.03;78.32
57038;BME280;59942;49.304;8.256;2022-10-16T16:39:22;100540.88;;;20.18;78.10
57038;BME280;59942;49.304;8.256;2022-10-16T16:41:49;100545.19;;;20.07;78.67
57038;BME280;59942;49.304;8.256;2022-10-16T16:44:17;100550.84;;;20.03;78.95
57038;BME280;59942;49.304;8.256;2022-10-16T16:46:44;100548.72;;;19.85;78.72
57038;BME280;59942;49.304;8.256;2022-10-16T16:49:15;100542.75;;;19.83;78.04
57038;BME280;59942;49.304;8.256;2022-10-16T16:51:42;100551.84;;;19.79;78.14
57038;BME280;59942;49.304;8.256;2022-10-16T16:54:10;100552.25;;;19.73;77.65
57038;BME280;59942;49.304;8.256;2022-10-16T16:56:41;100554.81;;;19.63;78.26
57038;BME280;59942;49.304;8.256;2022-10-16T16:59:16;100552.38;;;19.60;77.51
57038;BME280;59942;49.304;8.256;2022-10-16T17:01:47;100551.94;;;19.55;77.92
57038;BME280;59942;49.304;8.256;2022-10-16T17:04:22;100554.53;;;19.43;77.76
57038;BME280;59942;49.304;8.256;2022-10-16T17:06:52;100555.72;;;19.39;77.83
57038;BME280;59942;49.304;8.256;2022-10-16T17:09:27;100565.66;;;19.36;77.41
57038;BME280;59942;49.304;8.256;2022-10-16T17:11:59;100556.44;;;19.30;77.86
57038;BME280;59942;49.304;8.256;2022-10-16T17:14:27;100567.88;;;19.18;78.52
57038;BME280;59942;49.304;8.256;2022-10-16T17:16:57;100568.47;;;19.10;77.83
57038;BME280;59942;49.304;8.256;2022-10-16T17:19:27;100566.09;;;19.07;78.53
57038;BME280;59942;49.304;8.256;2022-10-16T17:21:58;100584.31;;;18.97;78.36
57038;BME280;59942;49.304;8.256;2022-10-16T17:24:28;100587.66;;;18.99;78.85
57038;BME280;59942;49.304;8.256;2022-10-16T17:26:55;100586.56;;;18.90;78.91
57038;BME280;59942;49.304;8.256;2022-10-16T17:29:23;100567.72;;;18.24;81.91
57038;BME280;59942;49.304;8.256;2022-10-16T17:31:55;100585.19;;;18.49;81.43
57038;BME280;59942;49.304;8.256;2022-10-16T17:34:27;100583.88;;;18.31;81.43
57038;BME280;59942;49.304;8.256;2022-10-16T17:37:00;100591.66;;;18.19;82.71
57038;BME280;59942;49.304;8.256;2022-10-16T17:39:27;100591.81;;;18.05;82.93
57038;BME280;59942;49.304;8.256;2022-10-16T17:41:55;100587.69;;;18.14;82.64
57038;BME280;59942;49.304;8.256;2022-10-16T17:44:24;100589.28;;;18.03;81.22
57038;BME280;59942;49.304;8.256;2022-10-16T17:46:52;100534.66;;;17.71;80.62
57038;BME280;59942;49.304;8.256;2022-10-16T17:49:24;100592.75;;;18.04;82.75
57038;BME280;59942;49.304;8.256;2022-10-16T17:51:53;100590.66;;;17.83;82.84
57038;BME280;59942;49.304;8.256;2022-10-16T17:54:24;100594.66;;;17.63;84.33
57038;BME280;59942;49.304;8.256;2022-10-16T17:56:52;100600.75;;;17.51;84.30
57038;BME280;59942;49.304;8.256;2022-10-16T17:59:20;100607.97;;;17.34;83.91
57038;BME280;59942;49.304;8.256;2022-10-16T18:01:48;100605.16;;;17.25;85.64
57038;BME280;59942;49.304;8.256;2022-10-16T18:04:20;100593.69;;;17.13;83.64
57038;BME280;59942;49.304;8.256;2022-10-16T18:06:49;100616.03;;;17.31;82.76
57038;BME280;59942;49.304;8.256;2022-10-16T18:09:18;100619.44;;;17.46;83.17
57038;BME280;59942;49.304;8.256;2022-10-16T18:11:46;100618.16;;;17.52;83.39
57038;BME280;59942;49.304;8.256;2022-10-16T18:14:16;100621.72;;;17.51;83.51
57038;BME280;59942;49.304;8.256;2022-10-16T18:16:50;100622.97;;;17.32;84.34
57038;BME280;59942;49.304;8.256;2022-10-16T18:19:18;100625.03;;;17.14;85.51
57038;BME280;59942;49.304;8.256;2022-10-16T18:21:51;100626.69;;;17.02;86.11
57038;BME280;59942;49.304;8.256;2022-10-16T18:24:18;100620.69;;;16.88;86.33
57038;BME280;59942;49.304;8.256;2022-10-16T18:26:54;100629.63;;;16.83;85.97
57038;BME280;59942;49.304;8.256;2022-10-16T18:29:29;100629.53;;;16.85;86.33
57038;BME280;59942;49.304;8.256;2022-10-16T18:31:59;100596.53;;;16.55;87.23
57038;BME280;59942;49.304;8.256;2022-10-16T18:34:27;100624.16;;;16.74;87.36
57038;BME280;59942;49.304;8.256;2022-10-16T18:36:54;100622.03;;;16.66;86.92
57038;BME280;59942;49.304;8.256;2022-10-16T18:39:24;100624.91;;;16.76;87.32
57038;BME280;59942;49.304;8.256;2022-10-16T18:41:55;100632.09;;;16.72;86.64
57038;BME280;59942;49.304;8.256;2022-10-16T18:44:28;100627.94;;;16.55;86.18
57038;BME280;59942;49.304;8.256;2022-10-16T18:46:57;100630.72;;;16.66;85.95
57038;BME280;59942;49.304;8.256;2022-10-16T18:49:25;100626.81;;;16.59;86.93
57038;BME280;59942;49.304;8.256;2022-10-16T18:51:54;100623.53;;;16.70;87.67
57038;BME280;59942;49.304;8.256;2022-10-16T18:54:24;100601.22;;;16.50;89.25
57038;BME280;59942;49.304;8.256;2022-10-16T18:56:56;100621.47;;;16.61;86.82
57038;BME280;59942;49.304;8.256;2022-10-16T18:59:24;100634.50;;;16.75;86.72
57038;BME280;59942;49.304;8.256;2022-10-16T19:01:55;100632.72;;;16.63;85.14
57038;BME280;59942;49.304;8.256;2022-10-16T19:04:26;100631.47;;;16.69;87.01
57038;BME280;59942;49.304;8.256;2022-10-16T19:06:56;100627.59;;;16.47;84.54
57038;BME280;59942;49.304;8.256;2022-10-16T19:09:23;100637.63;;;16.67;85.43
57038;BME280;59942;49.304;8.256;2022-10-16T19:11:51;100631.31;;;16.57;86.52
57038;BME280;59942;49.304;8.256;2022-10-16T19:14:18;100637.88;;;16.50;86.23
57038;BME280;59942;49.304;8.256;2022-10-16T19:16:48;100642.91;;;16.53;86.84
57038;BME280;59942;49.304;8.256;2022-10-16T19:19:16;100644.72;;;16.38;87.06
57038;BME280;59942;49.304;8.256;2022-10-16T19:21:46;100652.13;;;16.31;87.85
57038;BME280;59942;49.304;8.256;2022-10-16T19:24:17;100652.50;;;16.25;87.38
57038;BME280;59942;49.304;8.256;2022-10-16T19:26:50;100652.22;;;16.15;88.23
57038;BME280;59942;49.304;8.256;2022-10-16T19:29:19;100644.38;;;16.01;88.38
57038;BME280;59942;49.304;8.256;2022-10-16T19:31:48;100662.88;;;15.98;89.24
57038;BME280;59942;49.304;8.256;2022-10-16T19:34:16;100628.66;;;15.72;88.90